Stations météo

réclame
Mon MeteoGroup
Formigueres, France (7737): Température de l'air & dewpoint: 10.08.2018 03:00:00 - 16.08.2018 03:00:00 (CEST)Formigueres, France (7737): Vitesse du vent & gusts: 10.08.2018 03:00:00 - 16.08.2018 03:00:00 (CEST)Formigueres, France (7737): Direction du vent: 10.08.2018 03:00:00 - 16.08.2018 03:00:00 (CEST)Formigueres, France (7737): Quantités de précipitations: 10.08.2018 03:00:00 - 16.08.2018 03:00:00 (CEST)
Date & Time tt [°C] td [°C] ff [km/h] ff [knt] fx [km/h] fx [knt] dd rr [mm]
16.08.2018 03:00:00 10,1 8,2 16 9 24 13 W 0,0
16.08.2018 02:00:00 10,1 8,4 15 8 22 12 WSW -
16.08.2018 01:00:00 10,1 8,7 11 6 18 10 WSW 0,0
16.08.2018 00:00:00 10,5 8,9 13 7 18 10 WSW 0,0
15.08.2018 23:00:00 11,1 9,2 8 4 16 9 WSW 0,0
15.08.2018 22:00:00 11,6 9,5 8 4 15 8 WSW 0,0
15.08.2018 21:00:00 13,5 11,0 4 2 16 9 N 0,0
15.08.2018 20:00:00 17,5 12,4 8 4 26 14 N -
15.08.2018 19:00:00 18,7 12,7 16 9 29 16 NNE 0,0
15.08.2018 18:00:00 19,3 12,8 16 9 37 20 N 0,0
15.08.2018 17:00:00 20,1 13,3 21 11 41 22 N 0,0
15.08.2018 16:00:00 20,4 12,9 21 11 37 20 NNE 0,0
15.08.2018 15:00:00 20,2 12,2 21 11 34 18 NNE 0,0
15.08.2018 14:00:00 19,5 11,3 21 11 37 20 NNE -
15.08.2018 13:00:00 18,6 11,2 22 12 42 23 NNE 0,0
15.08.2018 12:00:00 17,7 10,3 18 10 35 19 N 0,0
15.08.2018 11:00:00 16,3 8,8 18 10 34 18 N 0,0
15.08.2018 10:00:00 15,1 9,0 13 7 24 13 N 0,0
15.08.2018 09:00:00 13,4 8,5 8 4 18 10 NNE 0,0
15.08.2018 08:00:00 8,2 6,5 8 4 15 8 WSW -
15.08.2018 07:00:00 6,6 5,4 9 5 22 12 WNW 0,0
15.08.2018 06:00:00 6,6 5,1 15 8 26 14 WSW 0,0
15.08.2018 05:00:00 8,8 6,4 13 7 29 16 NW 0,0
15.08.2018 04:00:00 9,1 6,9 13 7 31 17 NW 0,0
15.08.2018 03:00:00 9,3 6,9 18 10 29 16 NW 0,0
15.08.2018 02:00:00 9,5 6,9 16 9 31 17 NNW -
15.08.2018 01:00:00 9,4 7,0 13 7 28 15 N 0,0
15.08.2018 00:00:00 9,8 7,4 13 7 28 15 N 0,0
14.08.2018 23:00:00 9,9 7,5 11 6 31 17 N 0,0
14.08.2018 22:00:00 10,1 7,7 18 10 34 18 N 0,0
14.08.2018 21:00:00 10,4 7,6 21 11 41 22 N 0,0
14.08.2018 20:00:00 13,5 8,3 22 12 46 25 N -
14.08.2018 19:00:00 15,5 10,0 26 14 48 26 N 0,0
14.08.2018 18:00:00 16,5 10,1 24 13 54 29 NNE 0,0
14.08.2018 17:00:00 16,4 9,8 29 16 54 29 NNE 0,0
14.08.2018 16:00:00 15,1 10,1 29 16 55 30 NNE 0,0
14.08.2018 15:00:00 16,5 11,0 29 16 52 28 NNE 0,0
14.08.2018 14:00:00 15,1 10,9 26 14 48 26 NNE -
14.08.2018 13:00:00 13,5 11,0 22 12 46 25 NNE 0,0
14.08.2018 12:00:00 11,3 9,7 24 13 42 23 NNE 0,0
14.08.2018 11:00:00 12,4 11,1 18 10 41 22 NNE 0,0
14.08.2018 10:00:00 11,4 10,8 18 10 37 20 NNE 0,0
14.08.2018 09:00:00 11,2 10,7 13 7 29 16 NNE 0,0
14.08.2018 08:00:00 10,4 9,8 16 9 29 16 N -
14.08.2018 07:00:00 10,4 9,8 16 9 34 18 N 0,0
14.08.2018 06:00:00 10,5 9,9 18 10 34 18 N 0,0
14.08.2018 05:00:00 10,8 10,2 18 10 28 15 N 0,0
14.08.2018 04:00:00 11,0 10,4 15 8 34 18 N 0,0
14.08.2018 03:00:00 11,3 10,7 16 9 34 18 NNE 0,2
14.08.2018 02:00:00 11,7 11,1 21 11 35 19 N -
14.08.2018 01:00:00 12,0 11,4 16 9 29 16 N 0,0
14.08.2018 00:00:00 12,0 11,4 16 9 34 18 N 0,0
13.08.2018 23:00:00 12,2 11,4 18 10 37 20 N 1,0
13.08.2018 22:00:00 12,7 11,9 16 9 37 20 NNE 3,0
13.08.2018 21:00:00 13,4 12,3 18 10 34 18 NNE 0,0
13.08.2018 20:00:00 14,7 12,4 15 8 28 15 NNE -
13.08.2018 19:00:00 14,5 12,0 13 7 26 14 N 0,0
13.08.2018 18:00:00 14,4 12,3 15 8 34 18 N 0,0
13.08.2018 17:00:00 15,5 13,0 15 8 31 17 NNE 0,0
13.08.2018 16:00:00 17,2 13,3 21 11 41 22 N 0,0
13.08.2018 15:00:00 20,3 14,2 24 13 39 21 NNE 0,0
13.08.2018 14:00:00 20,1 14,5 18 10 35 19 NNE -
13.08.2018 13:00:00 18,0 13,7 21 11 37 20 NNE 0,0
13.08.2018 12:00:00 17,0 13,3 18 10 31 17 NNE 0,0
13.08.2018 11:00:00 16,0 12,5 13 7 28 15 NNE 0,0
13.08.2018 10:00:00 17,1 13,2 15 8 26 14 NNE 0,0
13.08.2018 09:00:00 14,1 11,8 5 3 18 10 NE 0,0
13.08.2018 08:00:00 9,6 8,5 8 4 11 6 W -
13.08.2018 07:00:00 9,0 7,9 5 3 15 8 WNW 0,0
13.08.2018 06:00:00 9,3 7,7 4 2 13 7 SSW 0,0
13.08.2018 05:00:00 10,1 8,5 4 2 24 13 N 0,0
13.08.2018 04:00:00 11,2 9,5 13 7 22 12 WSW 0,2
13.08.2018 03:00:00 11,2 9,9 5 3 18 10 SW 0,0
13.08.2018 02:00:00 11,0 9,6 8 4 21 11 WSW -
13.08.2018 01:00:00 11,5 9,6 8 4 39 21 WSW 0,0
13.08.2018 00:00:00 11,3 10,0 4 2 18 10 SSE 0,0
12.08.2018 23:00:00 11,8 10,4 15 8 29 16 S 3,0
12.08.2018 22:00:00 12,0 10,6 9 5 54 29 S 4,0
12.08.2018 21:00:00 14,9 12,0 18 10 34 18 S 1,0
12.08.2018 20:00:00 17,0 14,6 9 5 21 11 S -
12.08.2018 19:00:00 18,2 15,6 4 2 13 7 WNW 0,0
12.08.2018 18:00:00 18,8 16,0 9 5 22 12 SW 0,2
12.08.2018 17:00:00 19,1 15,2 8 4 15 8 W 0,0
12.08.2018 16:00:00 16,7 14,3 8 4 44 24 W 3,0
12.08.2018 15:00:00 23,7 12,3 8 4 29 16 SSW 0,0
12.08.2018 14:00:00 23,4 11,4 18 10 44 24 SSW -
12.08.2018 13:00:00 25,6 12,1 21 11 42 23 S 0,0
12.08.2018 12:00:00 25,0 13,2 18 10 37 20 S 0,0
12.08.2018 11:00:00 23,8 12,1 16 9 34 18 S 0,0
12.08.2018 10:00:00 21,8 13,4 13 7 28 15 S 0,0
12.08.2018 09:00:00 17,4 11,7 4 2 16 9 NNE 0,0
12.08.2018 08:00:00 12,7 9,1 9 5 22 12 W -
12.08.2018 07:00:00 11,0 8,2 16 9 24 13 W 0,0
12.08.2018 06:00:00 10,9 8,3 16 9 22 12 W 0,0
12.08.2018 05:00:00 11,4 8,8 15 8 22 12 WSW 0,2
12.08.2018 04:00:00 11,4 9,1 13 7 22 12 W 0,0
12.08.2018 03:00:00 11,7 9,6 16 9 22 12 W 0,0
12.08.2018 02:00:00 12,2 9,8 13 7 22 12 WSW -
12.08.2018 01:00:00 12,4 10,1 13 7 21 11 WSW 0,0
12.08.2018 00:00:00 12,8 10,9 11 6 18 10 WSW 0,0
11.08.2018 23:00:00 13,2 11,1 9 5 16 9 WSW 0,0
11.08.2018 22:00:00 14,2 11,7 8 4 11 6 W 0,0
11.08.2018 21:00:00 16,3 12,8 4 2 11 6 SW 0,0
11.08.2018 20:00:00 18,7 11,7 5 3 22 12 SSW -
11.08.2018 19:00:00 19,5 12,5 8 4 18 10 NNE 0,0
11.08.2018 18:00:00 20,3 13,0 9 5 22 12 NNE 0,0
11.08.2018 17:00:00 22,9 13,7 11 6 28 15 NNE 0,0
11.08.2018 16:00:00 20,8 12,7 15 8 34 18 N 0,0
11.08.2018 15:00:00 22,0 13,6 16 9 31 17 NNE 0,0
11.08.2018 14:00:00 22,3 13,4 18 10 35 19 NNE -
11.08.2018 13:00:00 21,5 12,9 18 10 34 18 NNE 0,0
11.08.2018 12:00:00 20,8 12,7 18 10 29 16 NNE 0,0
11.08.2018 11:00:00 20,0 12,2 11 6 24 13 NNE 0,0
11.08.2018 10:00:00 17,8 11,6 4 2 9 5 NE 0,0
11.08.2018 09:00:00 15,0 10,8 2 1 9 5 NNE 0,0
11.08.2018 08:00:00 10,5 8,4 11 6 22 12 WSW -
11.08.2018 07:00:00 8,5 6,8 13 7 24 13 W 0,0
11.08.2018 06:00:00 8,3 6,9 9 5 21 11 WSW 0,0
11.08.2018 05:00:00 8,8 7,2 8 4 16 9 WSW 0,0
11.08.2018 04:00:00 9,2 7,6 11 6 16 9 WSW 0,0
11.08.2018 03:00:00 10,3 9,4 9 5 13 7 WSW 0,0
11.08.2018 02:00:00 11,7 10,9 2 1 9 5 SW -
11.08.2018 01:00:00 12,0 11,2 4 2 8 4 SSW 0,0
11.08.2018 00:00:00 12,0 11,2 2 1 9 5 E 0,0
10.08.2018 23:00:00 12,0 11,2 2 1 9 5 NE 0,0
10.08.2018 22:00:00 12,0 11,2 8 4 15 8 N 0,0
10.08.2018 21:00:00 12,2 11,4 8 4 22 12 NNE 0,0
10.08.2018 20:00:00 12,6 11,5 11 6 24 13 NNE -
10.08.2018 19:00:00 13,8 11,7 15 8 34 18 NNE 0,0
10.08.2018 18:00:00 15,2 12,1 21 11 39 21 NNE 0,0
10.08.2018 17:00:00 18,1 13,6 18 10 37 20 NNE 0,0
10.08.2018 16:00:00 18,4 13,7 21 11 39 21 NNE 0,0
10.08.2018 15:00:00 18,0 13,3 21 11 41 22 NNE 0,0
10.08.2018 14:00:00 17,2 12,3 22 12 41 22 NNE -
10.08.2018 13:00:00 19,9 13,6 22 12 48 26 S 0,0
10.08.2018 12:00:00 18,0 12,2 22 12 44 24 SSE 0,0
10.08.2018 11:00:00 16,7 12,4 22 12 48 26 S 0,0
10.08.2018 10:00:00 16,1 12,5 16 9 31 17 S 0,0
10.08.2018 09:00:00 11,1 10,5 4 2 9 5 S 0,0
10.08.2018 08:00:00 9,4 8,8 4 2 11 6 WSW -
10.08.2018 07:00:00 9,0 8,2 2 1 4 2 SSE 0,0
10.08.2018 06:00:00 9,1 8,3 2 1 8 4 W 0,0
10.08.2018 05:00:00 9,0 8,4 4 2 15 8 NE 0,2
10.08.2018 04:00:00 8,9 7,8 2 1 15 8 N 0,0
10.08.2018 03:00:00 9,3 8,2 4 2 18 10 WNW 0,0

tt = Température de l'air
td = dewpoint
ff = Vitesse du vent
fx = gusts
dd = Direction du vent
rr = Quantités de précipitations

stations d'obs. à proximité